EDJ weather

Bellefontaine Regional Airport
Bellefontaine, Ohio, United States

Public forecast

Using degrees Fahrenheit for public forecast. Weather courtesy of forecast.io.

Current aviation weather report (METAR) for Bellefontaine Regional Airport

Retrieved 2020/06/05 21:15 UTC (9 minutes ago):

KEDJ 052115Z AUTO 26006KT 10SM CLR 29/15 A2989 RMK AO1

Closest aviation forecast (TAF) to Bellefontaine Regional Airport

Closest forecast is James M Cox Dayton International Airport, 33.7 nm (62.4 km) SSW. Retrieved 2020/06/05 18:48 UTC (3 hours ago):

TAF KDAY 051745Z 0518/0618 VRB03KT P6SM SCT040 BKN200 FM060000 27005KT P6SM SCT250 FM061200 34006KT P6SM SCT250 FM061500 34007KT P6SM SCT040